createdAt,value
2023-05-05T00:02:23.593Z,16.04
2023-05-05T00:04:50.052Z,15.85
2023-05-05T00:07:16.511Z,15.84
2023-05-05T00:09:43.162Z,15.80
2023-05-05T00:12:09.587Z,15.94
2023-05-05T00:14:36.069Z,15.85
2023-05-05T00:17:02.563Z,15.91
2023-05-05T00:19:28.992Z,15.85
2023-05-05T00:21:55.598Z,15.99
2023-05-05T00:24:22.000Z,16.06
2023-05-05T00:26:48.386Z,15.80
2023-05-05T00:29:14.899Z,16.03
2023-05-05T00:31:41.411Z,16.03
2023-05-05T00:34:07.930Z,15.89
2023-05-05T00:36:34.390Z,15.75
2023-05-05T00:39:01.115Z,15.82
2023-05-05T00:41:27.581Z,15.81
2023-05-05T00:43:54.054Z,15.79
2023-05-05T00:46:26.377Z,15.59
2023-05-05T00:48:53.076Z,15.49
2023-05-05T00:51:20.555Z,15.78
2023-05-05T00:53:47.981Z,15.58
2023-05-05T00:56:16.053Z,15.60
2023-05-05T00:58:43.410Z,15.53
2023-05-05T01:01:11.315Z,15.42
2023-05-05T01:03:38.831Z,15.40
2023-05-05T01:06:20.822Z,15.33
2023-05-05T01:09:01.732Z,15.38
2023-05-05T01:11:41.241Z,15.14
2023-05-05T01:14:17.381Z,15.26
2023-05-05T01:16:52.950Z,14.96
2023-05-05T01:19:37.991Z,14.97
2023-05-05T01:22:07.430Z,14.91
2023-05-05T01:24:42.939Z,14.95
2023-05-05T01:27:21.554Z,14.92
2023-05-05T01:30:25.770Z,14.93
2023-05-05T01:32:56.676Z,14.84
2023-05-05T01:35:28.706Z,14.89
2023-05-05T01:38:17.402Z,14.88
2023-05-05T01:40:47.900Z,14.86
2023-05-05T01:43:15.987Z,14.67
2023-05-05T01:45:43.600Z,14.93
2023-05-05T01:48:12.364Z,14.75
2023-05-05T01:50:41.733Z,14.81
2023-05-05T01:53:09.682Z,14.61
2023-05-05T01:55:36.811Z,14.42
2023-05-05T01:58:04.447Z,14.59
2023-05-05T02:00:31.716Z,14.57
2023-05-05T02:02:59.820Z,14.39
2023-05-05T02:05:27.173Z,14.57
2023-05-05T02:07:57.515Z,14.58
2023-05-05T02:10:24.199Z,14.41
2023-05-05T02:12:51.145Z,14.48
2023-05-05T02:15:18.631Z,14.45
2023-05-05T02:17:45.542Z,14.51
2023-05-05T02:20:12.906Z,14.39
2023-05-05T02:22:39.948Z,14.49
2023-05-05T02:25:06.911Z,14.45
2023-05-05T02:27:35.407Z,14.34
2023-05-05T02:30:08.002Z,14.47
2023-05-05T02:32:37.794Z,14.38
2023-05-05T02:35:12.631Z,14.34
2023-05-05T02:37:39.955Z,14.16
2023-05-05T02:40:08.473Z,14.14
2023-05-05T02:42:36.769Z,14.00
2023-05-05T02:45:07.655Z,13.96
2023-05-05T02:47:36.606Z,13.91
2023-05-05T02:50:04.258Z,14.00
2023-05-05T02:52:31.998Z,13.91
2023-05-05T02:54:59.326Z,13.93
2023-05-05T02:57:37.869Z,13.92
2023-05-05T03:00:12.672Z,13.91
2023-05-05T03:02:54.469Z,13.87
2023-05-05T03:05:25.492Z,13.87
2023-05-05T03:08:09.940Z,13.82
2023-05-05T03:10:44.874Z,13.66
2023-05-05T03:13:11.835Z,13.70
2023-05-05T03:15:45.168Z,13.80
2023-05-05T03:18:12.131Z,13.70
2023-05-05T03:20:42.357Z,13.62
2023-05-05T03:23:08.953Z,13.42
2023-05-05T03:25:45.940Z,13.46
2023-05-05T03:28:13.448Z,13.58
2023-05-05T03:30:39.954Z,13.39
2023-05-05T03:33:06.552Z,13.27
2023-05-05T03:35:33.563Z,13.31
2023-05-05T03:37:59.959Z,13.23
2023-05-05T03:40:36.137Z,13.29
2023-05-05T03:43:09.713Z,13.39
2023-05-05T03:45:36.287Z,13.18
2023-05-05T03:48:03.052Z,13.04
2023-05-05T03:50:29.528Z,13.00
2023-05-05T03:52:56.059Z,13.13
2023-05-05T03:55:22.598Z,12.93
2023-05-05T03:57:48.978Z,12.98
2023-05-05T04:00:15.999Z,13.25
2023-05-05T04:02:43.470Z,13.20
2023-05-05T04:05:10.033Z,12.95
2023-05-05T04:07:36.514Z,12.98
2023-05-05T04:10:02.956Z,12.96
2023-05-05T04:12:29.339Z,12.99
2023-05-05T04:14:55.884Z,12.92
2023-05-05T04:17:22.279Z,12.93
2023-05-05T04:19:48.669Z,12.98
2023-05-05T04:22:15.152Z,12.83
2023-05-05T04:24:41.577Z,12.95
2023-05-05T04:27:07.974Z,13.04
2023-05-05T04:29:34.451Z,13.02
2023-05-05T04:32:01.055Z,13.53
2023-05-05T04:34:27.520Z,14.48
2023-05-05T04:36:54.224Z,14.78
2023-05-05T04:39:20.632Z,14.52
2023-05-05T04:41:47.243Z,14.39
2023-05-05T04:44:13.669Z,14.57
2023-05-05T04:46:40.190Z,14.77
2023-05-05T04:49:06.884Z,15.22
2023-05-05T04:51:33.394Z,15.17
2023-05-05T04:53:59.955Z,15.13
2023-05-05T04:56:26.420Z,15.11
2023-05-05T04:58:52.862Z,15.37
2023-05-05T05:01:19.282Z,14.94
2023-05-05T05:03:45.943Z,14.42
2023-05-05T05:06:12.507Z,14.42
2023-05-05T05:08:38.968Z,14.21
2023-05-05T05:11:05.429Z,14.21
2023-05-05T05:13:32.348Z,14.18
2023-05-05T05:15:58.814Z,14.19
2023-05-05T05:18:25.238Z,14.26
2023-05-05T05:20:51.675Z,14.30
2023-05-05T05:23:18.110Z,14.41
2023-05-05T05:25:44.663Z,14.62
2023-05-05T05:28:11.241Z,14.41
2023-05-05T05:30:37.667Z,14.31
2023-05-05T05:33:04.109Z,14.40
2023-05-05T05:35:31.478Z,14.38
2023-05-05T05:37:58.006Z,14.57
2023-05-05T05:40:24.452Z,14.61
2023-05-05T05:42:50.894Z,14.71
2023-05-05T05:45:17.415Z,14.84
2023-05-05T05:47:43.890Z,14.79
2023-05-05T05:50:11.056Z,14.80
2023-05-05T05:52:37.748Z,14.71
2023-05-05T05:55:04.560Z,14.71
2023-05-05T05:57:31.343Z,14.84
2023-05-05T05:59:58.844Z,14.87
2023-05-05T06:02:28.481Z,14.95
2023-05-05T06:04:55.135Z,15.01
2023-05-05T06:07:21.560Z,15.12
2023-05-05T06:09:47.980Z,15.05
2023-05-05T06:12:14.409Z,15.20
2023-05-05T06:14:41.143Z,15.32
2023-05-05T06:17:07.547Z,15.31
2023-05-05T06:19:34.465Z,15.36
2023-05-05T06:22:00.928Z,15.49
2023-05-05T06:24:27.309Z,15.62
2023-05-05T06:26:53.823Z,15.71
2023-05-05T06:29:20.321Z,15.88
2023-05-05T06:31:47.031Z,16.10
2023-05-05T06:34:13.534Z,16.26
2023-05-05T06:36:40.006Z,16.18
2023-05-05T06:39:06.432Z,16.31
2023-05-05T06:41:32.856Z,16.57
2023-05-05T06:43:59.352Z,16.86
2023-05-05T06:46:26.312Z,17.14
2023-05-05T06:48:52.962Z,17.21
2023-05-05T06:51:19.730Z,17.70
2023-05-05T06:53:46.182Z,17.89
2023-05-05T06:56:12.698Z,18.38
2023-05-05T06:58:39.153Z,18.62
2023-05-05T07:01:05.789Z,18.52
2023-05-05T07:03:32.228Z,18.23
2023-05-05T07:05:58.655Z,18.22
2023-05-05T07:08:25.382Z,18.52
2023-05-05T07:10:52.006Z,18.86
2023-05-05T07:13:18.541Z,19.21
2023-05-05T07:15:46.540Z,19.19
2023-05-05T07:18:14.155Z,19.25
2023-05-05T07:20:40.996Z,19.56
2023-05-05T07:23:07.505Z,19.32
2023-05-05T07:25:33.987Z,19.62
2023-05-05T07:28:00.597Z,19.51
2023-05-05T07:30:27.100Z,19.88
2023-05-05T07:32:54.734Z,20.08
2023-05-05T07:35:21.461Z,19.73
2023-05-05T07:37:47.886Z,19.33
2023-05-05T07:40:14.435Z,19.38
2023-05-05T07:42:40.997Z,19.31
2023-05-05T07:45:07.878Z,19.31
2023-05-05T07:47:34.362Z,19.47
2023-05-05T07:50:01.420Z,19.36
2023-05-05T07:52:43.602Z,19.45
2023-05-05T07:55:11.620Z,19.46
2023-05-05T07:57:38.682Z,19.04
2023-05-05T08:00:05.940Z,19.52
2023-05-05T08:02:32.566Z,19.56
2023-05-05T08:04:59.041Z,19.65
2023-05-05T08:07:25.499Z,19.57
2023-05-05T08:09:51.948Z,19.80
2023-05-05T08:12:19.112Z,20.16
2023-05-05T08:14:45.533Z,20.24
2023-05-05T08:17:12.035Z,20.17
2023-05-05T08:19:38.438Z,20.50
2023-05-05T08:22:04.928Z,20.22
2023-05-05T08:24:31.427Z,20.59
2023-05-05T08:26:57.940Z,20.33
2023-05-05T08:29:24.366Z,21.01
2023-05-05T08:31:51.158Z,20.97
2023-05-05T08:34:17.832Z,20.83
2023-05-05T08:36:44.246Z,21.23
2023-05-05T08:39:10.693Z,21.25
2023-05-05T08:41:37.191Z,21.63
2023-05-05T08:44:03.717Z,21.85
2023-05-05T08:46:31.211Z,21.79
2023-05-05T08:48:58.833Z,21.30
2023-05-05T08:51:28.456Z,21.43
2023-05-05T08:53:54.803Z,21.19
2023-05-05T08:56:24.782Z,21.49
2023-05-05T08:58:51.515Z,21.63
2023-05-05T09:01:18.539Z,21.76
2023-05-05T09:03:46.249Z,21.82
2023-05-05T09:06:12.713Z,21.73
2023-05-05T09:08:39.329Z,21.96
2023-05-05T09:11:06.206Z,22.04
2023-05-05T09:13:32.781Z,22.12
2023-05-05T09:15:59.523Z,22.36
2023-05-05T09:18:26.414Z,22.33
2023-05-05T09:20:53.078Z,22.53
2023-05-05T09:23:20.178Z,22.06
2023-05-05T09:25:48.220Z,22.61
2023-05-05T09:28:17.640Z,22.96
2023-05-05T09:30:46.779Z,22.97
2023-05-05T09:33:13.884Z,23.05
2023-05-05T09:35:51.114Z,23.01
2023-05-05T09:38:18.372Z,23.37
2023-05-05T09:40:48.863Z,23.13
2023-05-05T09:43:16.288Z,23.27
2023-05-05T09:45:43.264Z,22.99
2023-05-05T09:48:29.268Z,22.43
2023-05-05T09:50:56.519Z,22.75
2023-05-05T09:53:23.987Z,23.24
2023-05-05T09:55:58.168Z,23.28
2023-05-05T09:58:26.354Z,23.19
2023-05-05T10:00:53.944Z,23.60
2023-05-05T10:03:20.872Z,23.85
2023-05-05T10:05:59.549Z,23.48
2023-05-05T10:08:28.085Z,23.97
2023-05-05T10:10:59.466Z,24.09
2023-05-05T10:13:26.463Z,23.76
2023-05-05T10:15:54.793Z,23.95
2023-05-05T10:18:23.500Z,24.37
2023-05-05T10:20:57.537Z,24.39
2023-05-05T10:23:26.689Z,24.52
2023-05-05T10:25:55.681Z,24.19
2023-05-05T10:28:50.812Z,23.94
2023-05-05T10:31:26.433Z,24.32
2023-05-05T10:33:55.937Z,24.31
2023-05-05T10:36:23.210Z,23.08
2023-05-05T10:38:50.722Z,23.33
2023-05-05T10:41:18.547Z,23.43
2023-05-05T10:43:45.847Z,24.04
2023-05-05T10:46:12.616Z,23.50
2023-05-05T10:48:56.121Z,23.31
2023-05-05T10:51:40.053Z,23.88
2023-05-05T10:54:17.952Z,23.89
2023-05-05T10:56:44.562Z,24.11
2023-05-05T10:59:39.682Z,24.46
2023-05-05T11:02:24.598Z,24.90
2023-05-05T11:05:09.705Z,24.61
2023-05-05T11:07:37.136Z,24.57
2023-05-05T11:10:07.948Z,24.31
2023-05-05T11:13:01.892Z,23.90
2023-05-05T11:15:28.730Z,23.60
2023-05-05T11:17:56.595Z,23.46
2023-05-05T11:20:35.747Z,23.53
2023-05-05T11:23:02.051Z,23.17
2023-05-05T11:25:34.503Z,23.46
2023-05-05T11:28:11.512Z,23.68
2023-05-05T11:30:59.665Z,23.95
2023-05-05T11:33:29.941Z,23.93
2023-05-05T11:36:07.342Z,24.17
2023-05-05T11:38:52.871Z,24.22
2023-05-05T11:41:31.930Z,24.17
2023-05-05T11:44:20.572Z,24.22
2023-05-05T11:46:53.066Z,24.39
2023-05-05T11:49:38.729Z,24.45
2023-05-05T11:52:08.120Z,24.57
2023-05-05T11:54:36.119Z,24.64
2023-05-05T11:57:05.407Z,24.50
2023-05-05T11:59:32.742Z,23.74
2023-05-05T12:01:59.522Z,23.93
2023-05-05T12:04:26.122Z,24.19
2023-05-05T12:06:52.535Z,23.90
2023-05-05T12:09:20.192Z,23.72
2023-05-05T12:11:54.256Z,23.75
2023-05-05T12:14:21.405Z,23.56
2023-05-05T12:17:14.369Z,23.82
2023-05-05T12:19:48.661Z,23.99
2023-05-05T12:22:19.515Z,23.57
2023-05-05T12:24:54.436Z,23.69
2023-05-05T12:27:21.633Z,23.81
2023-05-05T12:29:48.161Z,23.65
2023-05-05T12:32:22.469Z,23.44
2023-05-05T12:34:50.745Z,23.33
2023-05-05T12:37:19.015Z,23.23
2023-05-05T12:39:45.594Z,23.43
2023-05-05T12:42:12.134Z,23.15
2023-05-05T12:44:39.159Z,23.21
2023-05-05T12:47:06.997Z,23.41
2023-05-05T12:49:50.696Z,23.20
2023-05-05T12:52:18.240Z,23.03
2023-05-05T12:54:55.087Z,23.21
2023-05-05T12:57:22.294Z,22.94
2023-05-05T12:59:49.152Z,23.03
2023-05-05T13:02:16.339Z,22.57
2023-05-05T13:04:50.642Z,22.58
2023-05-05T13:07:19.499Z,22.47
2023-05-05T13:09:48.024Z,22.46
2023-05-05T13:12:15.648Z,22.38
2023-05-05T13:14:42.224Z,22.23
2023-05-05T13:17:09.137Z,22.12
2023-05-05T13:19:41.582Z,22.16
2023-05-05T13:22:09.119Z,21.84
2023-05-05T13:24:49.827Z,21.48
2023-05-05T13:27:18.851Z,21.43
2023-05-05T13:29:45.310Z,21.54
2023-05-05T13:32:11.787Z,21.56
2023-05-05T13:34:39.247Z,21.28
2023-05-05T13:37:06.133Z,21.02
2023-05-05T13:39:32.662Z,21.06
2023-05-05T13:41:59.126Z,20.28
2023-05-05T13:44:25.614Z,19.62
2023-05-05T13:46:52.047Z,19.34
2023-05-05T13:49:18.526Z,18.85
2023-05-05T13:51:46.704Z,18.85
2023-05-05T13:54:13.254Z,18.57
2023-05-05T13:56:39.828Z,18.70
2023-05-05T13:59:06.245Z,18.72
2023-05-05T14:01:32.766Z,18.93
2023-05-05T14:03:59.454Z,18.90
2023-05-05T14:06:26.364Z,18.85
2023-05-05T14:08:52.876Z,18.89
2023-05-05T14:11:20.545Z,18.73
2023-05-05T14:13:47.433Z,18.88
2023-05-05T14:16:14.164Z,18.82
2023-05-05T14:18:40.934Z,18.92
2023-05-05T14:21:07.507Z,18.79
2023-05-05T14:23:33.942Z,18.71
2023-05-05T14:26:00.750Z,18.86
2023-05-05T14:28:27.151Z,18.70
2023-05-05T14:30:53.692Z,18.80
2023-05-05T14:33:20.250Z,18.78
2023-05-05T14:35:46.646Z,18.75
2023-05-05T14:38:13.074Z,18.81
2023-05-05T14:40:39.517Z,18.56
2023-05-05T14:43:06.124Z,18.46
2023-05-05T14:45:32.686Z,18.60
2023-05-05T14:47:59.223Z,18.54
2023-05-05T14:50:25.686Z,18.77
2023-05-05T14:52:52.347Z,18.46
2023-05-05T14:55:18.897Z,18.61
2023-05-05T14:57:45.300Z,18.39
2023-05-05T15:00:12.689Z,18.52
2023-05-05T15:02:39.140Z,18.78
2023-05-05T15:05:06.181Z,18.66
2023-05-05T15:07:32.675Z,18.62
2023-05-05T15:09:59.109Z,18.77
2023-05-05T15:12:25.971Z,18.93
2023-05-05T15:14:52.397Z,18.73
2023-05-05T15:17:18.830Z,18.77
2023-05-05T15:19:45.305Z,18.81
2023-05-05T15:22:11.731Z,19.06
2023-05-05T15:24:38.276Z,19.01
2023-05-05T15:27:04.746Z,19.06
2023-05-05T15:29:31.263Z,18.92
2023-05-05T15:31:57.861Z,19.28
2023-05-05T15:34:24.334Z,19.71
2023-05-05T15:36:50.746Z,19.78
2023-05-05T15:39:17.704Z,19.89
2023-05-05T15:41:44.154Z,20.02
2023-05-05T15:44:12.164Z,19.83
2023-05-05T15:46:39.727Z,19.47
2023-05-05T15:49:06.316Z,19.31
2023-05-05T15:51:32.751Z,19.30
2023-05-05T15:54:00.186Z,19.31
2023-05-05T15:56:29.578Z,19.48
2023-05-05T15:58:56.687Z,19.40
2023-05-05T16:01:23.252Z,19.45
2023-05-05T16:03:49.740Z,19.50
2023-05-05T16:06:16.232Z,19.55
2023-05-05T16:08:42.723Z,19.37
2023-05-05T16:11:09.279Z,19.33
2023-05-05T16:13:35.781Z,19.25
2023-05-05T16:16:02.192Z,19.23
2023-05-05T16:18:28.621Z,18.99
2023-05-05T16:20:55.083Z,19.16
2023-05-05T16:23:22.571Z,19.17
2023-05-05T16:25:49.053Z,19.05
2023-05-05T16:28:15.483Z,19.05
2023-05-05T16:30:43.162Z,19.12
2023-05-05T16:33:09.688Z,19.08
2023-05-05T16:35:36.198Z,19.04
2023-05-05T16:38:02.632Z,18.91
2023-05-05T16:40:29.347Z,19.01
2023-05-05T16:42:55.788Z,18.91
2023-05-05T16:45:22.558Z,18.95
2023-05-05T16:47:49.079Z,18.95
2023-05-05T16:50:17.292Z,18.99
2023-05-05T16:52:43.811Z,18.91
2023-05-05T16:55:10.470Z,18.68
2023-05-05T16:57:37.088Z,18.85
2023-05-05T17:00:05.141Z,18.82
2023-05-05T17:02:31.667Z,18.75
2023-05-05T17:04:58.169Z,18.96
2023-05-05T17:07:24.650Z,18.89
2023-05-05T17:09:51.104Z,19.03
2023-05-05T17:12:17.638Z,18.97
2023-05-05T17:14:45.406Z,18.86
2023-05-05T17:17:12.182Z,18.60
2023-05-05T17:19:38.769Z,18.40
2023-05-05T17:22:05.341Z,18.54
2023-05-05T17:24:31.751Z,18.44
2023-05-05T17:26:58.290Z,18.30
2023-05-05T17:29:24.719Z,18.38
2023-05-05T17:31:51.593Z,18.32
2023-05-05T17:34:18.115Z,18.43
2023-05-05T17:36:44.593Z,18.46
2023-05-05T17:39:11.485Z,18.41
2023-05-05T17:41:37.942Z,18.41
2023-05-05T17:44:04.628Z,18.29
2023-05-05T17:46:31.070Z,18.20
2023-05-05T17:48:57.555Z,18.24
2023-05-05T17:51:24.062Z,18.12
2023-05-05T17:53:50.573Z,18.05
2023-05-05T17:56:17.021Z,18.03
2023-05-05T17:58:43.458Z,18.13
2023-05-05T18:01:13.532Z,18.03
2023-05-05T18:03:41.057Z,17.88
2023-05-05T18:06:07.699Z,17.91
2023-05-05T18:08:34.149Z,17.79
2023-05-05T18:11:01.730Z,17.76
2023-05-05T18:13:28.242Z,17.80
2023-05-05T18:15:54.682Z,17.77
2023-05-05T18:18:21.212Z,17.81
2023-05-05T18:20:47.791Z,17.62
2023-05-05T18:23:14.257Z,17.63
2023-05-05T18:25:41.430Z,17.66
2023-05-05T18:28:07.904Z,17.67
2023-05-05T18:30:35.599Z,17.58
2023-05-05T18:33:02.279Z,17.57
2023-05-05T18:35:29.256Z,17.65
2023-05-05T18:37:56.228Z,17.67
2023-05-05T18:40:22.966Z,17.65
2023-05-05T18:42:49.604Z,17.68
2023-05-05T18:45:16.063Z,17.64
2023-05-05T18:47:42.532Z,17.63
2023-05-05T18:50:09.922Z,17.57
2023-05-05T18:52:36.360Z,17.41
2023-05-05T18:55:02.854Z,17.38
2023-05-05T18:57:29.644Z,17.33
2023-05-05T18:59:56.086Z,17.05
2023-05-05T19:02:22.516Z,17.17
2023-05-05T19:04:49.293Z,17.06
2023-05-05T19:07:27.660Z,16.72
2023-05-05T19:10:00.662Z,16.86
2023-05-05T19:12:27.122Z,16.49
2023-05-05T19:14:53.549Z,16.49
2023-05-05T19:17:19.948Z,16.72
2023-05-05T19:19:46.357Z,16.69
2023-05-05T19:22:12.827Z,16.58
2023-05-05T19:24:39.239Z,16.69
2023-05-05T19:27:07.031Z,16.45
2023-05-05T19:29:33.741Z,16.42
2023-05-05T19:32:00.259Z,16.23
2023-05-05T19:34:26.916Z,16.15
2023-05-05T19:36:53.359Z,16.33
2023-05-05T19:39:19.853Z,16.32
2023-05-05T19:41:46.471Z,16.32
2023-05-05T19:44:12.982Z,16.09
2023-05-05T19:46:39.550Z,15.76
2023-05-05T19:49:06.178Z,15.84
2023-05-05T19:51:32.585Z,15.78
2023-05-05T19:53:59.443Z,15.57
2023-05-05T19:56:26.187Z,15.51
2023-05-05T19:59:00.780Z,15.55
2023-05-05T20:01:28.616Z,15.51
2023-05-05T20:03:56.367Z,15.47
2023-05-05T20:06:23.229Z,15.50
2023-05-05T20:08:49.957Z,15.45
2023-05-05T20:11:16.940Z,15.30
2023-05-05T20:13:43.788Z,15.39
2023-05-05T20:16:10.410Z,15.30
2023-05-05T20:18:36.879Z,15.32
2023-05-05T20:21:03.522Z,15.25
2023-05-05T20:23:30.335Z,15.17
2023-05-05T20:25:56.723Z,15.24
2023-05-05T20:28:23.375Z,15.04
2023-05-05T20:30:49.775Z,14.97
2023-05-05T20:33:16.444Z,14.96
2023-05-05T20:35:42.909Z,14.79
2023-05-05T20:38:09.779Z,14.66
2023-05-05T20:40:36.777Z,14.63
2023-05-05T20:43:03.261Z,14.67
2023-05-05T20:45:31.632Z,14.58
2023-05-05T20:47:58.572Z,14.55
2023-05-05T20:50:25.151Z,14.40
2023-05-05T20:52:51.570Z,14.19
2023-05-05T20:55:17.983Z,14.32
2023-05-05T20:57:44.391Z,14.29
2023-05-05T21:00:11.435Z,14.37
2023-05-05T21:02:38.173Z,14.19
2023-05-05T21:05:05.226Z,14.27
2023-05-05T21:07:34.152Z,14.03
2023-05-05T21:10:04.830Z,14.02
2023-05-05T21:12:31.556Z,14.06
2023-05-05T21:14:58.798Z,14.09
2023-05-05T21:17:26.103Z,13.98
2023-05-05T21:19:53.207Z,14.00
2023-05-05T21:22:19.830Z,13.69
2023-05-05T21:24:46.275Z,13.88
2023-05-05T21:27:13.402Z,13.78
2023-05-05T21:29:39.835Z,13.85
2023-05-05T21:32:10.644Z,13.78
2023-05-05T21:34:38.312Z,13.58
2023-05-05T21:37:05.124Z,13.64
2023-05-05T21:39:33.008Z,13.63
2023-05-05T21:42:00.623Z,13.38
2023-05-05T21:44:28.146Z,13.38
2023-05-05T21:46:55.143Z,13.53
2023-05-05T21:49:21.692Z,13.59
2023-05-05T21:51:48.271Z,13.58
2023-05-05T21:54:14.741Z,13.50
2023-05-05T21:56:41.295Z,13.43
2023-05-05T21:59:07.753Z,13.35
2023-05-05T22:01:34.695Z,13.42
2023-05-05T22:04:01.539Z,13.49
2023-05-05T22:06:28.049Z,13.29
2023-05-05T22:08:54.502Z,13.20
2023-05-05T22:11:21.625Z,13.22
2023-05-05T22:13:48.039Z,13.11
2023-05-05T22:16:18.429Z,13.18
2023-05-05T22:18:45.229Z,13.21
2023-05-05T22:21:11.681Z,13.04
2023-05-05T22:23:39.005Z,13.21
2023-05-05T22:26:05.518Z,13.19
2023-05-05T22:28:31.945Z,13.07
2023-05-05T22:30:58.370Z,13.09
2023-05-05T22:33:24.974Z,13.07
2023-05-05T22:35:51.964Z,13.12
2023-05-05T22:38:18.407Z,13.04
2023-05-05T22:40:45.136Z,13.08
2023-05-05T22:43:11.695Z,13.13
2023-05-05T22:45:38.502Z,13.11
2023-05-05T22:48:05.374Z,13.17
2023-05-05T22:50:31.917Z,13.03
2023-05-05T22:52:58.336Z,13.05
2023-05-05T22:55:24.893Z,13.02
2023-05-05T22:57:52.541Z,13.13
2023-05-05T23:00:19.131Z,13.00
2023-05-05T23:02:45.878Z,12.94
2023-05-05T23:05:12.629Z,12.96
2023-05-05T23:07:39.268Z,13.02
2023-05-05T23:10:06.302Z,13.05
2023-05-05T23:12:32.777Z,13.14
2023-05-05T23:14:59.193Z,13.13
2023-05-05T23:17:25.760Z,12.98
2023-05-05T23:19:52.246Z,13.03
2023-05-05T23:22:18.687Z,13.06
2023-05-05T23:24:45.146Z,12.95
2023-05-05T23:27:12.454Z,12.92
2023-05-05T23:29:39.037Z,12.96
2023-05-05T23:32:05.816Z,13.02
2023-05-05T23:34:32.208Z,13.00
2023-05-05T23:36:58.606Z,12.82
2023-05-05T23:39:25.096Z,12.90
2023-05-05T23:41:51.473Z,12.88
2023-05-05T23:44:17.961Z,12.78
2023-05-05T23:46:44.396Z,12.77
2023-05-05T23:49:10.864Z,12.73
2023-05-05T23:51:37.308Z,12.76
2023-05-05T23:54:04.079Z,12.73
2023-05-05T23:56:30.581Z,12.49
2023-05-05T23:58:56.976Z,12.51
